Time;durP1;ratioP1;P1;durP2;ratioP2;P2;SDS_P1;SDS_P2;PMS_P1;PMS_P2;Temp;Humidity;BMP_temperature;BMP_pressure;BME280_temperature;BME280_humidity;BME280_pressure;Samples;Min_cycle;Max_cycle;Signal;HPM_P1;HPM_P2
2021/12/07 00:01:54;;;;;;;8.40;1.88;;;8.60;84.30;;;;;;5108171;28;20012;-73
2021/12/07 00:04:20;;;;;;;7.95;1.88;;;8.60;84.00;;;;;;5108310;28;20514;-73
2021/12/07 00:06:46;;;;;;;7.70;1.75;;;8.60;84.10;;;;;;5110741;28;20019;-73
2021/12/07 00:09:15;;;;;;;8.70;1.83;;;8.60;83.90;;;;;;5095235;28;20027;-73
2021/12/07 00:11:43;;;;;;;8.15;1.63;;;8.60;84.00;;;;;;5107766;28;20035;-73
2021/12/07 00:14:14;;;;;;;6.03;1.75;;;8.60;84.00;;;;;;5107933;28;20499;-73
2021/12/07 00:16:44;;;;;;;10.02;2.00;;;8.60;84.10;;;;;;5108056;28;20020;-72
2021/12/07 00:19:11;;;;;;;8.13;1.95;;;8.60;84.10;;;;;;5107995;28;20095;-72
2021/12/07 00:21:41;;;;;;;7.82;1.70;;;8.50;83.80;;;;;;5111314;28;20028;-73
2021/12/07 00:24:08;;;;;;;5.55;2.00;;;8.40;84.00;;;;;;5108838;28;20110;-73
2021/12/07 00:26:33;;;;;;;7.30;1.80;;;8.40;83.80;;;;;;5094451;28;20405;-72
2021/12/07 00:29:02;;;;;;;9.48;2.00;;;8.40;84.10;;;;;;5107743;28;20024;-72
2021/12/07 00:31:35;;;;;;;8.85;1.50;;;8.40;84.10;;;;;;5091232;28;20028;-72
2021/12/07 00:34:38;;;;;;;10.63;2.88;;;8.40;84.30;;;;;;5091422;28;20030;-72
2021/12/07 00:37:04;;;;;;;6.80;2.00;;;8.30;84.40;;;;;;5112125;28;20483;-72
2021/12/07 00:39:30;;;;;;;8.65;1.63;;;8.30;84.30;;;;;;5114881;28;20022;-72
2021/12/07 00:41:56;;;;;;;6.90;1.75;;;8.30;84.20;;;;;;5111222;28;20041;-73
2021/12/07 00:44:24;;;;;;;8.95;1.92;;;8.30;84.10;;;;;;5113186;28;20559;-72
2021/12/07 00:46:51;;;;;;;5.90;1.40;;;8.20;84.10;;;;;;5111706;28;20476;-73
2021/12/07 00:49:17;;;;;;;7.32;1.90;;;8.20;84.20;;;;;;5111431;28;20400;-73
2021/12/07 00:51:43;;;;;;;9.77;2.00;;;8.10;84.40;;;;;;5113222;28;20058;-73
2021/12/07 00:54:09;;;;;;;5.72;1.77;;;8.10;84.50;;;;;;5112470;28;20047;-73
2021/12/07 00:56:36;;;;;;;7.78;1.75;;;8.10;84.40;;;;;;5098108;28;20015;-73
2021/12/07 00:59:03;;;;;;;5.68;1.92;;;8.10;84.00;;;;;;5097948;28;20076;-73
2021/12/07 01:01:28;;;;;;;7.53;1.73;;;8.10;84.50;;;;;;5111467;28;20028;-73
2021/12/07 01:03:54;;;;;;;7.22;1.83;;;8.00;84.50;;;;;;5095826;28;20043;-73
2021/12/07 01:25:05;;;;;;;5.20;1.45;;;7.90;84.90;;;;;;5095056;28;20050;-73
2021/12/07 01:27:31;;;;;;;6.32;1.52;;;7.90;84.60;;;;;;5134597;27;20111;-73
2021/12/07 01:30:33;;;;;;;5.50;1.30;;;7.90;84.80;;;;;;5110344;28;20114;-73
2021/12/07 01:33:10;;;;;;;9.23;2.67;;;7.90;84.60;;;;;;5109960;28;20039;-73
2021/12/07 01:51:49;;;;;;;4.40;1.55;;;7.90;84.60;;;;;;5112414;28;20038;-73
2021/12/07 01:59:51;;;;;;;5.95;1.38;;;7.80;84.70;;;;;;5110033;28;20034;-73
2021/12/07 02:02:20;;;;;;;6.35;1.48;;;7.80;84.70;;;;;;5110211;27;20038;-72
2021/12/07 02:04:46;;;;;;;9.35;1.38;;;7.80;84.70;;;;;;5109460;28;20073;-73
2021/12/07 02:07:13;;;;;;;9.13;1.80;;;7.80;84.90;;;;;;5110136;28;20024;-72
2021/12/07 02:09:43;;;;;;;5.03;1.35;;;7.80;84.70;;;;;;5112904;28;20016;-72
2021/12/07 02:12:11;;;;;;;6.13;1.60;;;7.80;84.90;;;;;;5112590;28;20072;-72
2021/12/07 02:14:37;;;;;;;7.15;1.58;;;7.80;84.90;;;;;;5109490;28;20016;-72
2021/12/07 02:17:07;;;;;;;6.85;1.45;;;7.80;85.00;;;;;;5109451;28;20088;-72
2021/12/07 02:19:33;;;;;;;7.68;1.55;;;7.70;84.80;;;;;;5109100;28;20039;-72
2021/12/07 02:22:00;;;;;;;7.18;1.70;;;7.70;84.90;;;;;;5093115;28;20032;-71
2021/12/07 02:24:26;;;;;;;7.40;1.67;;;7.70;85.10;;;;;;5112518;28;20063;-72
2021/12/07 02:26:52;;;;;;;4.57;1.85;;;7.70;84.80;;;;;;5109363;28;20015;-73
2021/12/07 02:29:19;;;;;;;7.88;1.80;;;7.70;84.60;;;;;;5109442;28;20035;-72
2021/12/07 02:31:46;;;;;;;5.78;1.60;;;7.70;84.90;;;;;;5109169;28;20373;-71
2021/12/07 02:34:12;;;;;;;6.15;1.73;;;7.70;84.90;;;;;;5109067;28;20032;-72
2021/12/07 02:36:38;;;;;;;5.97;1.42;;;7.60;84.80;;;;;;5126088;27;20106;-71
2021/12/07 02:39:07;;;;;;;5.70;1.80;;;7.60;85.00;;;;;;5109958;28;20027;-71
2021/12/07 02:41:33;;;;;;;7.50;1.85;;;7.50;84.80;;;;;;5109153;28;20019;-72
2021/12/07 02:44:00;;;;;;;7.80;1.65;;;7.60;85.00;;;;;;5094909;28;20530;-73
2021/12/07 02:46:25;;;;;;;7.43;1.52;;;7.50;84.80;;;;;;5109331;28;20085;-74
2021/12/07 02:48:51;;;;;;;6.90;1.40;;;7.50;85.00;;;;;;5110729;28;20028;-73
2021/12/07 02:51:17;;;;;;;4.68;1.40;;;7.50;85.10;;;;;;5110663;28;20487;-73
2021/12/07 02:53:43;;;;;;;7.50;1.35;;;7.50;85.00;;;;;;5108596;28;20082;-73
2021/12/07 02:56:09;;;;;;;6.82;1.80;;;7.50;84.80;;;;;;5095535;28;20551;-74
2021/12/07 02:58:37;;;;;;;5.50;1.55;;;7.50;85.00;;;;;;5108946;28;20031;-74
2021/12/07 03:01:13;;;;;;;5.97;2.00;;;7.50;85.00;;;;;;5109672;28;20028;-73
2021/12/07 03:03:52;;;;;;;6.25;1.75;;;7.40;84.80;;;;;;5137847;27;20082;-74
2021/12/07 03:06:25;;;;;;;6.28;1.30;;;7.40;84.90;;;;;;5110789;28;20062;-74
2021/12/07 03:27:59;;;;;;;5.70;1.60;;;7.20;85.30;;;;;;5109826;28;20076;-73
2021/12/07 03:30:26;;;;;;;5.22;1.42;;;7.20;85.10;;;;;;5110788;28;20027;-72
2021/12/07 03:32:51;;;;;;;5.47;1.48;;;7.30;85.50;;;;;;5094635;28;20028;-73
2021/12/07 03:35:18;;;;;;;7.45;1.63;;;7.20;85.50;;;;;;5108079;28;20026;-73
2021/12/07 03:37:44;;;;;;;5.32;1.40;;;7.30;86.00;;;;;;5108341;28;20072;-73
2021/12/07 03:40:11;;;;;;;6.18;1.65;;;7.30;85.20;;;;;;5108162;28;20019;-73
2021/12/07 03:42:37;;;;;;;5.68;1.33;;;7.30;85.40;;;;;;5111803;28;20031;-73
2021/12/07 03:45:08;;;;;;;5.88;1.33;;;7.30;85.30;;;;;;5108537;28;20066;-73
2021/12/07 03:47:33;;;;;;;3.95;1.73;;;7.20;85.20;;;;;;5094109;28;20024;-72
2021/12/07 03:49:59;;;;;;;6.90;1.50;;;7.20;85.50;;;;;;5108145;28;20168;-73
2021/12/07 03:52:25;;;;;;;6.70;1.35;;;7.20;85.60;;;;;;5090568;28;20085;-72
2021/12/07 03:54:50;;;;;;;4.57;2.15;;;7.20;85.60;;;;;;5110260;28;20559;-73
2021/12/07 03:57:16;;;;;;;6.28;1.70;;;7.20;85.60;;;;;;5109596;28;20032;-73
2021/12/07 03:59:42;;;;;;;6.70;1.55;;;7.30;85.70;;;;;;5108295;28;20373;-72
2021/12/07 04:02:08;;;;;;;5.53;1.60;;;7.30;85.70;;;;;;5108143;28;20112;-73
2021/12/07 04:04:35;;;;;;;4.78;1.20;;;7.30;85.70;;;;;;5107985;28;20023;-73
2021/12/07 04:07:00;;;;;;;4.45;1.20;;;7.30;85.20;;;;;;5108849;28;20075;-73
2021/12/07 04:09:26;;;;;;;4.75;1.50;;;7.20;84.80;;;;;;5112153;28;20457;-74
2021/12/07 04:11:52;;;;;;;4.28;1.25;;;7.20;85.30;;;;;;5098915;28;20023;-73
2021/12/07 04:14:17;;;;;;;5.05;1.55;;;7.20;85.50;;;;;;5111949;28;20088;-73
2021/12/07 04:16:43;;;;;;;5.07;1.27;;;7.20;85.50;;;;;;5095646;28;20020;-73
2021/12/07 04:19:09;;;;;;;6.10;1.27;;;7.20;85.10;;;;;;5112021;28;20472;-73
2021/12/07 04:21:34;;;;;;;4.65;1.65;;;7.20;84.90;;;;;;5115554;28;20030;-73
2021/12/07 04:24:00;;;;;;;4.20;1.38;;;7.10;85.30;;;;;;5111350;28;20039;-72
2021/12/07 04:26:26;;;;;;;4.65;1.40;;;7.10;84.80;;;;;;5111837;28;20020;-73
2021/12/07 04:28:52;;;;;;;6.13;1.65;;;7.10;85.60;;;;;;5096800;28;20144;-73
2021/12/07 04:31:20;;;;;;;4.40;1.45;;;7.20;85.60;;;;;;5111475;28;20502;-73
2021/12/07 04:33:46;;;;;;;5.78;1.60;;;7.20;85.60;;;;;;5114216;28;20389;-73
2021/12/07 04:36:12;;;;;;;4.57;1.52;;;7.10;85.60;;;;;;5112921;28;20027;-73
2021/12/07 04:38:39;;;;;;;6.28;1.88;;;7.10;85.60;;;;;;5111903;28;20016;-73
2021/12/07 04:41:05;;;;;;;6.50;1.73;;;7.10;85.50;;;;;;5111173;28;20024;-73
2021/12/07 04:43:32;;;;;;;6.93;1.65;;;7.10;85.60;;;;;;5111130;28;20024;-73
2021/12/07 04:46:11;;;;;;;4.25;1.55;;;7.00;85.50;;;;;;5095675;28;20443;-72
2021/12/07 04:59:33;;;;;;;3.13;1.45;;;7.10;86.30;;;;;;5111355;28;20038;-73
2021/12/07 05:01:59;;;;;;;6.10;1.50;;;7.10;85.90;;;;;;5111632;27;20032;-73
2021/12/07 05:04:28;;;;;;;7.32;2.00;;;7.00;86.10;;;;;;5111230;28;20030;-73
2021/12/07 05:07:02;;;;;;;5.60;1.50;;;7.00;86.40;;;;;;5112756;28;20024;-72
2021/12/07 05:14:33;;;;;;;6.30;1.33;;;7.10;86.30;;;;;;5110621;28;20031;-73
2021/12/07 05:38:55;;;;;;;6.72;1.17;;;7.30;85.70;;;;;;5110943;28;20038;-72
2021/12/07 05:41:23;;;;;;;4.72;1.33;;;7.20;86.10;;;;;;5110459;28;20408;-73
2021/12/07 05:43:48;;;;;;;6.13;1.33;;;7.20;86.20;;;;;;5094084;28;20036;-73
2021/12/07 05:46:14;;;;;;;5.97;1.27;;;7.20;86.00;;;;;;5110562;28;20024;-72
2021/12/07 05:48:40;;;;;;;7.32;1.80;;;7.30;86.10;;;;;;5113184;28;20098;-73
2021/12/07 05:51:05;;;;;;;4.30;1.40;;;7.20;85.60;;;;;;5111048;28;20015;-73
2021/12/07 05:53:31;;;;;;;7.13;1.83;;;7.20;86.30;;;;;;5109958;28;20039;-73
2021/12/07 05:55:57;;;;;;;4.28;1.25;;;7.30;86.40;;;;;;5110293;28;20023;-72
2021/12/07 05:58:22;;;;;;;7.30;1.40;;;7.20;86.50;;;;;;5109941;28;20078;-72
2021/12/07 06:00:49;;;;;;;4.68;1.27;;;7.30;86.60;;;;;;5112948;28;20093;-73
2021/12/07 06:03:15;;;;;;;5.25;1.27;;;7.30;86.50;;;;;;5111285;28;20043;-72
2021/12/07 06:05:42;;;;;;;4.13;1.20;;;7.30;86.80;;;;;;5109788;28;20027;-72
2021/12/07 06:08:08;;;;;;;5.90;1.70;;;7.30;86.80;;;;;;5109965;28;20030;-73
2021/12/07 06:10:35;;;;;;;7.05;1.40;;;7.30;86.70;;;;;;5109535;28;20019;-72
2021/12/07 06:13:01;;;;;;;5.78;1.20;;;7.30;86.90;;;;;;5110623;28;20077;-72
2021/12/07 06:15:31;;;;;;;5.57;1.25;;;7.40;87.10;;;;;;5112683;28;20103;-73
2021/12/07 06:17:57;;;;;;;4.88;1.33;;;7.40;86.50;;;;;;5109754;28;20053;-73
2021/12/07 06:20:24;;;;;;;6.18;1.33;;;7.40;86.70;;;;;;5096255;28;20476;-72
2021/12/07 06:22:50;;;;;;;6.15;1.25;;;7.50;86.60;;;;;;5109586;28;20040;-72
2021/12/07 06:25:15;;;;;;;3.10;1.08;;;7.50;86.50;;;;;;5109301;28;20030;-72
2021/12/07 06:27:42;;;;;;;5.65;1.17;;;7.60;86.70;;;;;;5112364;28;20081;-73
2021/12/07 06:30:09;;;;;;;3.10;1.15;;;7.50;86.10;;;;;;5110497;28;20020;-73
2021/12/07 06:32:35;;;;;;;3.05;0.90;;;7.60;86.50;;;;;;5109158;28;20027;-72
2021/12/07 06:35:01;;;;;;;6.28;1.30;;;7.50;86.40;;;;;;5095479;28;20572;-72
2021/12/07 06:37:27;;;;;;;3.88;1.08;;;7.60;86.50;;;;;;5091386;28;20451;-72
2021/12/07 06:39:52;;;;;;;5.47;1.05;;;7.60;86.40;;;;;;5094474;28;20047;-72
2021/12/07 06:42:18;;;;;;;4.85;1.80;;;7.60;86.40;;;;;;5110769;28;20066;-72
2021/12/07 06:44:44;;;;;;;5.75;1.23;;;7.70;86.70;;;;;;5109010;28;20500;-72
2021/12/07 06:47:09;;;;;;;6.50;1.13;;;7.70;86.60;;;;;;5109184;28;20130;-72
2021/12/07 06:49:35;;;;;;;4.85;1.00;;;7.70;86.60;;;;;;5091861;28;20514;-72
2021/12/07 06:52:03;;;;;;;5.28;1.40;;;7.80;87.00;;;;;;5092802;28;20023;-72
2021/12/07 06:54:29;;;;;;;4.25;1.15;;;7.80;86.80;;;;;;5111738;28;20043;-73
2021/12/07 06:56:55;;;;;;;5.68;1.13;;;7.80;86.40;;;;;;5110598;28;20027;-73
2021/12/07 06:59:20;;;;;;;6.05;0.90;;;7.80;86.50;;;;;;5081304;28;20032;-73
2021/12/07 07:01:47;;;;;;;7.07;1.30;;;7.80;87.00;;;;;;5099921;28;20050;-72
2021/12/07 07:04:14;;;;;;;4.63;0.98;;;7.90;86.90;;;;;;5110412;28;20032;-72
2021/12/07 07:06:41;;;;;;;5.28;0.88;;;7.90;87.10;;;;;;5112106;28;20030;-73
2021/12/07 07:09:08;;;;;;;6.47;1.20;;;7.90;86.80;;;;;;5104592;28;20152;-73
2021/12/07 07:11:34;;;;;;;4.45;0.85;;;7.90;87.20;;;;;;5095919;28;20659;-72
2021/12/07 07:14:01;;;;;;;3.20;0.90;;;7.90;87.20;;;;;;5101790;28;20149;-72
2021/12/07 07:16:27;;;;;;;5.72;0.70;;;7.90;87.40;;;;;;5090606;28;20028;-71
2021/12/07 07:18:54;;;;;;;4.93;1.02;;;7.90;87.30;;;;;;5111712;28;20116;-71
2021/12/07 07:21:19;;;;;;;5.40;1.17;;;8.00;87.40;;;;;;5112729;28;20077;-70
2021/12/07 07:23:45;;;;;;;4.07;1.10;;;8.00;87.70;;;;;;5108254;28;20077;-73
2021/12/07 07:26:11;;;;;;;5.68;1.13;;;8.00;87.90;;;;;;5109802;28;20106;-72
2021/12/07 07:28:37;;;;;;;5.88;0.90;;;8.00;88.10;;;;;;5111012;28;20098;-73
2021/12/07 07:31:06;;;;;;;6.43;0.93;;;8.00;88.10;;;;;;5111056;28;20024;-72
2021/12/07 07:33:32;;;;;;;7.72;0.95;;;8.10;88.10;;;;;;5114958;28;20484;-72
2021/12/07 07:35:57;;;;;;;5.38;1.25;;;8.10;88.00;;;;;;5112419;28;20099;-73
2021/12/07 07:38:24;;;;;;;4.80;1.20;;;8.10;88.60;;;;;;5108904;28;20112;-73
2021/12/07 07:40:49;;;;;;;3.90;1.05;;;8.10;88.40;;;;;;5094409;28;20016;-73
2021/12/07 07:43:17;;;;;;;4.82;1.30;;;8.10;88.20;;;;;;5108462;28;20081;-73
2021/12/07 07:45:44;;;;;;;5.45;1.10;;;8.20;88.60;;;;;;5113730;28;20015;-69
2021/12/07 07:48:10;;;;;;;7.13;1.48;;;8.30;88.80;;;;;;5112904;28;20073;-69
2021/12/07 07:50:36;;;;;;;4.18;1.15;;;8.30;88.30;;;;;;5110479;28;20028;-68
2021/12/07 07:53:02;;;;;;;5.47;1.20;;;8.30;88.70;;;;;;5111582;28;20028;-69
2021/12/07 07:55:28;;;;;;;4.78;1.02;;;8.30;89.30;;;;;;5112261;28;20055;-67
2021/12/07 07:57:53;;;;;;;4.72;1.10;;;8.40;89.10;;;;;;5113717;28;20023;-68
2021/12/07 08:00:21;;;;;;;8.80;1.85;;;8.40;89.30;;;;;;5113238;28;20027;-68
2021/12/07 08:02:48;;;;;;;10.23;1.63;;;8.40;89.30;;;;;;5098978;28;20656;-69
2021/12/07 08:05:15;;;;;;;7.72;1.52;;;8.40;90.10;;;;;;5112734;28;20055;-68
2021/12/07 08:07:41;;;;;;;7.32;1.80;;;8.40;89.90;;;;;;5113138;28;20019;-68
2021/12/07 08:10:08;;;;;;;7.82;1.58;;;8.40;90.20;;;;;;5112168;28;20030;-69
2021/12/07 08:12:35;;;;;;;7.50;1.23;;;8.40;90.10;;;;;;5110164;28;20035;-68
2021/12/07 08:15:01;;;;;;;8.88;1.60;;;8.40;90.30;;;;;;5112246;28;20032;-68
2021/12/07 08:17:27;;;;;;;6.30;1.45;;;8.50;90.20;;;;;;5111881;28;20016;-68
2021/12/07 08:19:53;;;;;;;8.70;1.90;;;8.50;90.40;;;;;;5112078;28;20561;-68
2021/12/07 08:22:19;;;;;;;8.50;2.10;;;8.50;90.30;;;;;;5111755;28;20119;-68
2021/12/07 08:24:45;;;;;;;8.80;2.10;;;8.60;90.30;;;;;;5114598;28;20032;-68
2021/12/07 08:27:11;;;;;;;7.32;1.50;;;8.60;90.70;;;;;;5114207;28;20020;-69
2021/12/07 08:29:37;;;;;;;8.02;1.70;;;8.60;90.50;;;;;;5097822;28;20484;-68
2021/12/07 08:32:03;;;;;;;10.98;1.73;;;8.60;90.40;;;;;;5111867;28;20058;-69
2021/12/07 08:34:29;;;;;;;6.85;1.70;;;8.70;90.50;;;;;;5112070;28;20046;-69
2021/12/07 08:36:55;;;;;;;9.50;1.80;;;8.70;90.50;;;;;;5113459;28;20480;-68
2021/12/07 08:39:20;;;;;;;6.35;1.58;;;8.70;90.80;;;;;;5121555;27;20023;-68
2021/12/07 08:41:46;;;;;;;8.30;1.30;;;8.80;90.60;;;;;;5119612;27;20019;-67
2021/12/07 08:44:12;;;;;;;8.15;1.83;;;8.80;90.30;;;;;;5115224;27;20514;-67
2021/12/07 08:46:38;;;;;;;12.38;1.50;;;8.90;90.50;;;;;;5122178;27;20024;-67
2021/12/07 08:49:04;;;;;;;8.20;1.58;;;8.90;90.60;;;;;;5111346;28;20039;-68
2021/12/07 08:51:30;;;;;;;6.40;1.67;;;9.00;90.70;;;;;;5114275;28;20403;-67
2021/12/07 08:54:03;;;;;;;10.18;1.80;;;9.00;90.90;;;;;;5100730;28;20048;-67
2021/12/07 09:01:57;;;;;;;6.75;1.50;;;9.10;91.00;;;;;;5111505;27;20107;-67
2021/12/07 09:04:23;;;;;;;8.63;1.85;;;9.10;91.60;;;;;;5111063;28;20131;-67
2021/12/07 09:06:50;;;;;;;10.38;1.65;;;9.10;91.50;;;;;;5113506;28;20020;-68
2021/12/07 09:09:16;;;;;;;10.05;1.80;;;9.10;91.00;;;;;;5112377;28;20042;-68
2021/12/07 09:11:42;;;;;;;9.75;2.17;;;9.10;91.80;;;;;;5111330;28;20022;-68
2021/12/07 09:14:11;;;;;;;9.52;1.42;;;9.20;91.60;;;;;;5110889;28;20055;-67
2021/12/07 09:16:37;;;;;;;10.07;1.70;;;9.20;91.60;;;;;;5093828;28;20051;-67
2021/12/07 09:19:04;;;;;;;9.50;1.80;;;9.30;91.70;;;;;;5111241;28;20058;-67
2021/12/07 09:21:31;;;;;;;9.07;1.92;;;9.30;92.10;;;;;;5115797;27;20051;-69
2021/12/07 09:23:56;;;;;;;11.13;1.88;;;9.40;91.70;;;;;;5110996;28;20036;-69
2021/12/07 09:26:22;;;;;;;10.35;1.73;;;9.40;92.00;;;;;;5110756;28;20031;-69
2021/12/07 09:28:48;;;;;;;7.53;1.70;;;9.40;91.90;;;;;;5110708;28;20028;-68
2021/12/07 09:31:14;;;;;;;9.23;2.00;;;9.50;92.00;;;;;;5111086;28;20024;-68
2021/12/07 09:33:41;;;;;;;9.35;1.88;;;9.50;91.80;;;;;;5113379;28;20035;-69
2021/12/07 09:36:09;;;;;;;9.40;2.20;;;9.50;91.70;;;;;;5111119;28;20019;-69
2021/12/07 09:38:35;;;;;;;9.23;1.98;;;9.50;91.80;;;;;;5110752;28;20123;-68
2021/12/07 09:41:02;;;;;;;5.35;1.27;;;9.50;92.10;;;;;;5110647;28;20031;-68
2021/12/07 09:43:28;;;;;;;9.43;1.90;;;9.60;91.60;;;;;;5110189;28;20066;-69
2021/12/07 09:45:54;;;;;;;10.25;2.20;;;9.60;91.90;;;;;;5112532;28;20551;-69
2021/12/07 09:48:20;;;;;;;6.25;1.70;;;9.60;92.10;;;;;;5111536;28;20043;-69
2021/12/07 09:50:50;;;;;;;6.78;1.77;;;9.70;92.00;;;;;;5110636;28;20024;-68
2021/12/07 09:53:16;;;;;;;8.95;1.90;;;9.60;92.10;;;;;;5110360;28;20067;-68
2021/12/07 09:55:44;;;;;;;8.88;2.15;;;9.70;91.80;;;;;;5110185;28;20028;-68
2021/12/07 09:58:10;;;;;;;13.18;2.65;;;9.70;91.90;;;;;;5092216;28;20027;-68
2021/12/07 10:00:36;;;;;;;6.20;1.63;;;9.70;92.20;;;;;;5114050;28;20019;-68
2021/12/07 10:03:03;;;;;;;6.63;1.95;;;9.70;91.70;;;;;;5109835;28;20039;-68
2021/12/07 10:05:31;;;;;;;10.52;2.22;;;9.80;91.90;;;;;;5110046;28;20035;-69
2021/12/07 10:07:58;;;;;;;11.57;2.08;;;9.80;92.20;;;;;;5108493;28;20020;-68
2021/12/07 10:10:31;;;;;;;9.15;1.73;;;9.80;92.30;;;;;;5110352;28;20468;-68
2021/12/07 10:12:57;;;;;;;9.43;1.73;;;9.90;91.90;;;;;;5109444;27;20076;-69
2021/12/07 10:15:23;;;;;;;6.60;2.03;;;9.90;92.10;;;;;;5111649;28;20023;-69
2021/12/07 10:18:09;;;;;;;10.10;1.98;;;9.90;92.10;;;;;;5108813;28;20028;-69
2021/12/07 10:20:47;;;;;;;10.15;2.30;;;9.90;92.10;;;;;;5093884;28;20063;-67
2021/12/07 10:23:16;;;;;;;12.57;2.63;;;9.90;92.30;;;;;;5108756;28;20043;-67
2021/12/07 10:25:44;;;;;;;9.65;2.45;;;9.90;92.40;;;;;;5109685;28;20026;-69
2021/12/07 10:28:54;;;;;;;7.43;1.98;;;10.00;92.80;;;;;;5109746;28;20065;-67
2021/12/07 10:31:20;;;;;;;12.00;2.53;;;10.00;92.90;;;;;;5017228;28;20041;-67
2021/12/07 10:33:54;;;;;;;10.75;1.92;;;10.00;92.70;;;;;;5032311;28;20041;-69
2021/12/07 10:36:24;;;;;;;10.02;1.92;;;10.10;92.60;;;;;;5032787;28;20038;-69
2021/12/07 10:39:10;;;;;;;12.48;2.38;;;10.10;92.90;;;;;;5033269;28;20065;-69
2021/12/07 10:41:41;;;;;;;11.15;2.40;;;10.10;92.30;;;;;;5034010;28;20552;-69
2021/12/07 10:44:11;;;;;;;10.05;2.83;;;10.20;92.90;;;;;;5033659;28;20120;-67
2021/12/07 10:46:39;;;;;;;12.07;2.45;;;10.20;92.80;;;;;;5027827;28;20029;-68
2021/12/07 10:49:22;;;;;;;11.75;2.67;;;10.20;93.00;;;;;;5028932;28;20073;-68
2021/12/07 10:52:11;;;;;;;11.45;2.33;;;10.30;92.70;;;;;;5033153;28;20032;-68
2021/12/07 10:54:47;;;;;;;9.82;2.50;;;10.30;92.90;;;;;;5045841;28;20558;-68
2021/12/07 10:57:21;;;;;;;12.60;2.25;;;10.30;92.70;;;;;;5034197;28;20104;-68
2021/12/07 10:59:58;;;;;;;10.45;2.30;;;10.30;92.80;;;;;;5033682;28;20033;-68
2021/12/07 11:02:30;;;;;;;10.25;2.22;;;10.30;93.10;;;;;;5033319;28;20592;-68
2021/12/07 11:04:56;;;;;;;12.20;2.20;;;10.30;93.30;;;;;;5033509;28;20138;-68
2021/12/07 11:07:25;;;;;;;9.15;1.60;;;10.30;93.20;;;;;;5044453;28;20485;-67
2021/12/07 11:12:36;;;;;;;12.30;2.08;;;10.30;92.90;;;;;;5111732;28;20061;-69
2021/12/07 11:15:11;;;;;;;14.13;2.45;;;10.30;93.70;;;;;;5104538;28;20445;-67
2021/12/07 11:17:36;;;;;;;9.90;1.88;;;10.30;93.40;;;;;;5106365;27;20028;-67
2021/12/07 11:20:04;;;;;;;10.85;1.80;;;10.30;93.50;;;;;;5104543;28;20024;-68
2021/12/07 11:22:35;;;;;;;11.90;1.75;;;10.40;93.20;;;;;;5115550;27;20107;-67
2021/12/07 11:25:03;;;;;;;11.73;2.08;;;10.40;93.50;;;;;;5108601;28;20277;-69
2021/12/07 11:30:21;;;;;;;13.30;2.05;;;10.40;93.60;;;;;;5113624;27;20049;-70
2021/12/07 11:32:55;;;;;;;11.50;2.33;;;10.40;93.70;;;;;;5112693;27;20515;-70
2021/12/07 11:35:26;;;;;;;8.35;1.98;;;10.40;94.20;;;;;;5110262;28;20062;-71
2021/12/07 11:37:55;;;;;;;12.13;2.00;;;10.30;93.90;;;;;;5124222;27;20027;-70
2021/12/07 11:40:37;;;;;;;11.02;2.28;;;10.30;94.40;;;;;;5130444;27;20027;-70
2021/12/07 11:43:14;;;;;;;11.82;2.10;;;10.20;94.30;;;;;;5089494;28;20403;-70
2021/12/07 11:45:43;;;;;;;14.52;2.45;;;10.30;94.40;;;;;;5087490;28;20065;-70
2021/12/07 11:48:09;;;;;;;12.55;1.80;;;10.20;94.10;;;;;;5103398;28;20024;-70
2021/12/07 11:50:47;;;;;;;8.95;1.67;;;10.20;94.80;;;;;;5106372;28;20027;-70
2021/12/07 11:53:16;;;;;;;8.38;1.52;;;10.20;95.40;;;;;;5106350;28;20043;-71
2021/12/07 11:55:47;;;;;;;9.02;1.95;;;10.10;96.00;;;;;;5105353;28;20388;-70
2021/12/07 11:58:14;;;;;;;6.72;1.75;;;10.10;96.20;;;;;;5104999;28;20035;-69
2021/12/07 12:00:49;;;;;;;8.00;1.40;;;10.10;97.10;;;;;;5082894;28;20020;-73
2021/12/07 12:03:17;;;;;;;8.15;1.50;;;10.00;97.80;;;;;;5103275;28;20040;-70
2021/12/07 12:05:46;;;;;;;6.03;1.55;;;9.90;97.40;;;;;;5096662;28;20046;-68
2021/12/07 12:08:14;;;;;;;5.47;1.52;;;9.90;97.90;;;;;;5104691;28;20441;-70
2021/12/07 12:10:44;;;;;;;9.32;1.67;;;9.90;97.60;;;;;;5105116;28;20446;-68
2021/12/07 12:13:30;;;;;;;8.10;1.65;;;9.90;97.70;;;;;;5104193;28;20036;-69
2021/12/07 12:16:31;;;;;;;7.78;1.40;;;9.90;97.90;;;;;;5104495;28;20024;-68
2021/12/07 12:19:34;;;;;;;9.18;1.60;;;10.00;97.50;;;;;;5092327;28;20048;-69
2021/12/07 12:22:25;;;;;;;9.80;1.92;;;10.00;97.80;;;;;;5105893;28;20111;-68
2021/12/07 12:24:54;;;;;;;8.05;1.38;;;10.00;97.60;;;;;;5104575;28;20031;-69
2021/12/07 12:27:33;;;;;;;6.97;1.50;;;10.00;97.60;;;;;;5106266;28;20495;-74
2021/12/07 12:30:04;;;;;;;6.80;1.85;;;10.10;97.50;;;;;;5097384;28;20024;-73
2021/12/07 12:32:43;;;;;;;6.85;1.50;;;10.10;97.10;;;;;;5106822;28;20035;-72
2021/12/07 12:35:10;;;;;;;7.15;1.88;;;10.10;97.10;;;;;;5108921;28;20028;-73
2021/12/07 12:37:38;;;;;;;6.13;1.40;;;10.10;97.00;;;;;;5092321;28;20475;-73
2021/12/07 12:40:19;;;;;;;5.80;1.17;;;10.20;97.30;;;;;;5110729;28;20119;-68
2021/12/07 12:42:48;;;;;;;3.92;1.20;;;10.20;96.50;;;;;;5104153;27;20023;-67
2021/12/07 12:45:20;;;;;;;5.00;1.20;;;10.20;96.90;;;;;;5105466;28;20400;-67
2021/12/07 12:47:55;;;;;;;5.47;1.20;;;10.20;96.90;;;;;;5109189;28;20028;-67
2021/12/07 12:50:31;;;;;;;3.67;0.90;;;10.20;96.80;;;;;;5110917;28;20643;-67
2021/12/07 12:53:02;;;;;;;3.42;0.82;;;10.10;96.70;;;;;;5109871;28;20043;-68
2021/12/07 12:55:41;;;;;;;4.95;1.02;;;10.20;96.40;;;;;;5108877;28;20507;-67
2021/12/07 12:58:15;;;;;;;2.20;0.68;;;10.20;96.80;;;;;;5092669;28;20024;-67
2021/12/07 13:01:05;;;;;;;5.72;1.00;;;10.10;96.60;;;;;;5109031;27;20024;-67
2021/12/07 13:03:43;;;;;;;4.20;0.95;;;10.10;97.00;;;;;;5112599;28;20024;-68
2021/12/07 13:06:14;;;;;;;2.17;0.80;;;10.10;97.30;;;;;;5112319;28;20031;-68
2021/12/07 13:09:05;;;;;;;3.05;0.80;;;10.00;99.90;;;;;;5109779;28;20016;-67
2021/12/07 13:11:36;;;;;;;3.85;0.93;;;10.00;99.90;;;;;;5109466;28;20028;-67
2021/12/07 13:14:06;;;;;;;3.22;1.00;;;9.90;99.90;;;;;;5110208;28;20054;-67
2021/12/07 13:16:34;;;;;;;2.15;0.82;;;9.90;99.90;;;;;;5110211;28;20065;-67
2021/12/07 13:19:03;;;;;;;2.10;0.70;;;9.90;99.90;;;;;;5110960;28;20033;-65
2021/12/07 13:21:31;;;;;;;3.03;0.90;;;9.80;99.90;;;;;;5113190;28;20553;-66
2021/12/07 13:24:02;;;;;;;4.78;1.08;;;9.90;99.90;;;;;;5096050;28;20035;-67
2021/12/07 13:26:37;;;;;;;2.90;0.80;;;9.80;99.80;;;;;;5108889;28;20019;-68
2021/12/07 13:29:10;;;;;;;2.75;1.00;;;9.80;99.60;;;;;;5095953;28;20027;-67
2021/12/07 13:31:37;;;;;;;;;;;9.80;99.60;;;;;;5110330;28;20031;-67
2021/12/07 13:34:04;;;;;;;3.78;0.98;;;9.80;99.20;;;;;;5092070;28;19941;-67
2021/12/07 13:36:53;;;;;;;2.10;0.65;;;9.80;99.40;;;;;;5112529;28;20403;-66
2021/12/07 13:39:22;;;;;;;3.42;0.90;;;9.80;99.60;;;;;;5097526;28;20077;-69
2021/12/07 13:41:48;;;;;;;2.33;0.63;;;9.80;98.80;;;;;;5094655;28;20027;-68
2021/12/07 13:44:15;;;;;;;2.40;1.20;;;9.80;99.20;;;;;;5111174;28;20468;-68
2021/12/07 13:46:41;;;;;;;3.03;0.77;;;9.80;99.20;;;;;;5109287;28;20020;-69
2021/12/07 13:49:09;;;;;;;1.33;0.52;;;9.80;98.80;;;;;;5109362;28;20042;-69
2021/12/07 13:51:36;;;;;;;3.30;0.90;;;9.80;98.90;;;;;;5105860;28;20020;-68
2021/12/07 13:54:04;;;;;;;1.83;0.68;;;9.80;99.00;;;;;;5111247;28;20043;-69
2021/12/07 13:56:38;;;;;;;1.60;0.57;;;9.80;98.80;;;;;;5095252;28;20027;-67
2021/12/07 13:59:13;;;;;;;3.15;0.77;;;9.80;98.60;;;;;;5108366;28;20028;-68
2021/12/07 14:01:47;;;;;;;2.15;0.60;;;9.80;98.90;;;;;;5109202;28;20019;-69
2021/12/07 14:04:13;;;;;;;2.10;0.73;;;9.80;98.40;;;;;;5097076;28;20032;-67
2021/12/07 14:06:46;;;;;;;2.75;0.82;;;9.80;98.30;;;;;;5112597;28;20385;-70
2021/12/07 14:09:13;;;;;;;2.10;0.73;;;9.80;98.30;;;;;;5110257;28;20565;-69
2021/12/07 14:11:39;;;;;;;2.33;0.80;;;9.80;98.00;;;;;;5108847;28;20019;-68
2021/12/07 14:14:15;;;;;;;1.88;0.68;;;9.80;98.00;;;;;;5108840;28;20028;-69
2021/12/07 14:16:43;;;;;;;3.30;0.88;;;9.90;98.00;;;;;;5108559;28;20015;-67
2021/12/07 14:19:09;;;;;;;2.05;1.02;;;9.80;97.70;;;;;;5108820;28;20047;-67
2021/12/07 14:21:36;;;;;;;3.13;0.70;;;9.90;97.70;;;;;;5112433;28;20484;-68
2021/12/07 14:24:06;;;;;;;1.73;0.60;;;9.90;97.50;;;;;;5097774;28;20066;-67
2021/12/07 14:26:37;;;;;;;1.73;0.50;;;9.90;97.40;;;;;;5108522;28;20019;-69
2021/12/07 14:29:12;;;;;;;1.50;0.50;;;9.90;97.50;;;;;;5108382;28;20050;-68
2021/12/07 14:31:50;;;;;;;1.38;0.60;;;9.90;97.40;;;;;;5108327;28;20028;-68
2021/12/07 14:34:16;;;;;;;2.42;0.60;;;10.00;97.20;;;;;;5102753;28;20020;-67
2021/12/07 14:36:47;;;;;;;1.15;0.60;;;10.00;97.30;;;;;;5110183;28;20027;-68
2021/12/07 14:39:43;;;;;;;0.93;0.47;;;10.00;97.20;;;;;;5110654;28;20032;-67
2021/12/07 14:42:11;;;;;;;2.35;0.70;;;10.00;97.50;;;;;;5107578;28;20101;-67
2021/12/07 14:44:51;;;;;;;2.05;0.63;;;10.00;97.20;;;;;;5107786;28;20092;-67
2021/12/07 14:47:18;;;;;;;1.70;0.60;;;10.00;97.60;;;;;;5094157;28;20126;-67
2021/12/07 14:49:50;;;;;;;1.73;0.47;;;10.00;97.30;;;;;;5107170;28;20031;-67
2021/12/07 14:52:22;;;;;;;2.40;0.63;;;10.00;97.70;;;;;;5090297;28;20027;-67